El Morro — WDE6763 — position and weather

sailwx.info

Track history (hours):
 
Tides and Currents Weather Stations Pressure Air Temp Water Temp Dewpoint Dewpoint Depression Visibility Wind Speed Wind Dir Waves Ship Positions

El Morro

Owner: AMERICAN TUGS INC., San Juan, PR. More information available from US FCC via Universal Licensing System and Coast Guard Vessel Documentation Center.

Last reported at 2018-Jun-09 18:40 UTC. Time now 2018-Jun-21 10:12 UTC.
Position N 17°49' W 063°33'.
Warning: this ship's position is 11 days out of date.

Length 29 m; draft 3.4 m.

Type: Towing. MMSI: 367384530.

Date/timePositionNaut miles runAvg speedWind from/ knotsBaromVisibWave heightAir tempDewpointWater temp
2018-Jun-09 18:40N 17°49' W 063°33'2 5.3
2018-Jun-09 18:23N 17°49' W 063°32'2 5.6
2018-Jun-09 18:00N 17°48' W 063°30'3 5.5
2018-Jun-09 17:28N 17°47' W 063°27'3 5.6
2018-Jun-09 16:59N 17°46' W 063°24'6 5.3
2018-Jun-09 15:55N 17°44' W 063°19'5 5.1
2018-Jun-09 14:58N 17°41' W 063°15'2 5.3
2018-Jun-09 14:30N 17°40' W 063°12'3 5.4
2018-Jun-09 13:58N 17°38' W 063°10'29 5.8
2018-Jun-09 08:59N 17°13' W 062°54'  
Track history (hours):
 
Tides and Currents Weather Stations Pressure Air Temp Water Temp Dewpoint Dewpoint Depression Visibility Wind Speed Wind Dir Waves Ship Positions

El Morro

Owner: AMERICAN TUGS INC., San Juan, PR. More information available from US FCC via Universal Licensing System and Coast Guard Vessel Documentation Center.

Last reported at 2018-Jun-09 18:40 UTC. Time now 2018-Jun-21 10:12 UTC.
Position N 17°49' W 063°33'.
Warning: this ship's position is 11 days out of date.

Length 29 m; draft 3.4 m.

Type: Towing. MMSI: 367384530.

Date/timePositionNaut miles runAvg speedWind from/ knotsBaromVisibWave heightAir tempDewpointWater temp
2018-Jun-09 18:40N 17°49' W 063°33'2 5.3
2018-Jun-09 18:23N 17°49' W 063°32'2 5.6
2018-Jun-09 18:00N 17°48' W 063°30'3 5.5
2018-Jun-09 17:28N 17°47' W 063°27'3 5.6
2018-Jun-09 16:59N 17°46' W 063°24'6 5.3
2018-Jun-09 15:55N 17°44' W 063°19'5 5.1
2018-Jun-09 14:58N 17°41' W 063°15'2 5.3
2018-Jun-09 14:30N 17°40' W 063°12'3 5.4
2018-Jun-09 13:58N 17°38' W 063°10'29 5.8
2018-Jun-09 08:59N 17°13' W 062°54'  

Dump ship's entire track history